Terminal Aerodrome Forecast
Issued by NWS

Current Version | Previous Version | Text Only | Print | Product List | Glossary On
Versions: 1 2 3 4 5 6 7 8 9 10 11 12 13 14 15 16 17 18 19 20 21 22 23 24 25 26 27 28 29 30
728
FTUS41 KCAR 081742 AAA
TAFFVE
TAF AMD
KFVE 081742Z 0818/0918 05009KT P6SM BKN250
     FM090100 04010KT P6SM BKN030
     FM090700 02008KT 3SM -SN OVC025
     FM090900 01009KT 1SM -SN OVC015
     FM091700 04009KT 2SM -SN OVC007=

USA.gov is the U.S. government's official web portal to all federal, state and local government web resources and services.